createdAt,value
2022-08-16T00:02:00.042Z,100094.59
2022-08-16T00:04:34.368Z,100094.25
2022-08-16T00:07:10.287Z,100102.00
2022-08-16T00:09:48.704Z,100095.50
2022-08-16T00:12:27.750Z,100094.69
2022-08-16T00:15:05.946Z,100093.88
2022-08-16T00:17:56.908Z,100090.72
2022-08-16T00:20:32.927Z,100090.25
2022-08-16T00:23:07.329Z,100087.84
2022-08-16T00:26:34.747Z,100097.53
2022-08-16T00:28:42.073Z,100089.09
2022-08-16T00:31:24.128Z,100090.81
2022-08-16T00:34:07.478Z,100104.28
2022-08-16T00:36:49.733Z,100097.31
2022-08-16T00:39:43.166Z,100104.19
2022-08-16T00:42:29.680Z,100105.88
2022-08-16T00:45:16.546Z,100103.81
2022-08-16T00:47:50.519Z,100111.59
2022-08-16T00:50:35.664Z,100109.53
2022-08-16T00:53:13.322Z,100112.03
2022-08-16T00:55:52.249Z,100119.13
2022-08-16T00:58:35.335Z,100111.72
2022-08-16T01:01:12.889Z,100122.22
2022-08-16T01:03:52.325Z,100120.28
2022-08-16T01:06:40.297Z,100127.81
2022-08-16T01:09:24.390Z,100125.16
2022-08-16T01:12:11.293Z,100124.03
2022-08-16T01:15:08.381Z,100117.19
2022-08-16T01:17:56.125Z,100116.13
2022-08-16T01:20:41.625Z,100123.94
2022-08-16T01:23:24.637Z,100121.63
2022-08-16T01:26:35.169Z,100122.63
2022-08-16T01:29:20.833Z,100129.34
2022-08-16T01:32:31.921Z,100125.91
2022-08-16T01:35:26.792Z,100126.72
2022-08-16T01:38:19.449Z,100126.13
2022-08-16T01:40:58.049Z,100130.78
2022-08-16T01:43:40.027Z,100134.00
2022-08-16T01:46:41.846Z,100145.50
2022-08-16T01:49:45.473Z,100139.09
2022-08-16T01:52:28.154Z,100145.38
2022-08-16T01:55:27.002Z,100148.88
2022-08-16T01:58:12.605Z,100155.25
2022-08-16T02:00:55.124Z,100150.72
2022-08-16T02:03:35.582Z,100169.94
2022-08-16T02:06:34.199Z,100164.91
2022-08-16T02:09:12.803Z,100173.94
2022-08-16T02:11:53.371Z,100178.75
2022-08-16T02:14:35.935Z,100170.97
2022-08-16T02:17:14.772Z,100165.38
2022-08-16T02:19:59.702Z,100170.22
2022-08-16T02:22:39.972Z,100171.94
2022-08-16T02:25:52.136Z,100185.56
2022-08-16T02:28:35.906Z,100185.00
2022-08-16T02:31:13.000Z,100190.84
2022-08-16T02:33:50.061Z,100193.91
2022-08-16T02:36:47.927Z,100194.94
2022-08-16T02:39:36.354Z,100196.75
2022-08-16T02:42:11.983Z,100195.72
2022-08-16T02:44:49.360Z,100195.84
2022-08-16T02:47:29.383Z,100190.59
2022-08-16T02:50:55.428Z,100200.97
2022-08-16T02:53:07.791Z,100207.91
2022-08-16T02:55:50.555Z,100215.81
2022-08-16T02:58:25.088Z,100219.56
2022-08-16T03:00:59.684Z,100221.25
2022-08-16T03:04:40.924Z,100223.78
2022-08-16T03:06:44.732Z,100222.16
2022-08-16T03:09:32.685Z,100225.50
2022-08-16T03:12:09.219Z,100221.03
2022-08-16T03:14:53.163Z,100219.09
2022-08-16T03:17:32.267Z,100210.19
2022-08-16T03:20:11.881Z,100223.19
2022-08-16T03:22:52.655Z,100223.66
2022-08-16T03:25:44.231Z,100221.94
2022-08-16T03:28:18.688Z,100227.44
2022-08-16T03:30:55.285Z,100239.28
2022-08-16T03:33:27.419Z,100238.84
2022-08-16T03:36:29.970Z,100235.63
2022-08-16T03:39:15.021Z,100237.38
2022-08-16T03:42:02.998Z,100237.81
2022-08-16T03:44:49.525Z,100241.56
2022-08-16T03:47:29.931Z,100238.72
2022-08-16T03:50:26.068Z,100240.41
2022-08-16T03:53:07.283Z,100238.44
2022-08-16T03:55:45.314Z,100238.91
2022-08-16T03:58:19.417Z,100237.63
2022-08-16T04:00:59.243Z,100231.59
2022-08-16T04:03:40.722Z,100236.03
2022-08-16T04:06:15.240Z,100232.38
2022-08-16T04:08:57.346Z,100229.66
2022-08-16T04:11:38.752Z,100232.94
2022-08-16T04:14:32.414Z,100231.78
2022-08-16T04:17:10.584Z,100233.72
2022-08-16T04:19:46.877Z,100239.22
2022-08-16T04:22:27.376Z,100230.66
2022-08-16T04:25:06.069Z,100228.25
2022-08-16T04:27:54.267Z,100226.66
2022-08-16T04:30:32.262Z,100227.44
2022-08-16T04:33:15.457Z,100233.94
2022-08-16T04:35:51.205Z,100231.56
2022-08-16T04:38:25.692Z,100230.41
2022-08-16T04:41:12.051Z,100225.84
2022-08-16T04:43:51.627Z,100231.56
2022-08-16T04:47:03.162Z,100238.06
2022-08-16T04:49:28.498Z,100243.75
2022-08-16T04:52:33.694Z,100241.00
2022-08-16T04:55:17.646Z,100249.56
2022-08-16T04:57:55.683Z,100254.13
2022-08-16T05:00:37.889Z,100247.50
2022-08-16T05:03:27.253Z,100252.41
2022-08-16T05:06:11.399Z,100246.34
2022-08-16T05:08:50.593Z,100251.69
2022-08-16T05:11:34.606Z,100244.88
2022-08-16T05:14:11.854Z,100247.25
2022-08-16T05:17:08.918Z,100255.13
2022-08-16T05:19:46.871Z,100247.72
2022-08-16T05:22:39.562Z,100257.88
2022-08-16T05:25:24.358Z,100254.22
2022-08-16T05:28:37.459Z,100262.31
2022-08-16T05:31:13.529Z,100270.53
2022-08-16T05:33:53.659Z,100270.97
2022-08-16T05:36:39.019Z,100274.97
2022-08-16T05:39:23.156Z,100268.47
2022-08-16T05:42:01.596Z,100268.38
2022-08-16T05:44:29.229Z,100265.53
2022-08-16T05:47:04.899Z,100271.59
2022-08-16T05:49:39.324Z,100268.72
2022-08-16T05:52:13.765Z,100269.44
2022-08-16T05:55:01.536Z,100263.25
2022-08-16T05:57:39.613Z,100257.56
2022-08-16T06:00:22.629Z,100260.50
2022-08-16T06:02:54.812Z,100268.16
2022-08-16T06:05:50.897Z,100267.72
2022-08-16T06:08:31.633Z,100277.88
2022-08-16T06:11:10.505Z,100278.69
2022-08-16T06:13:42.906Z,100279.84
2022-08-16T06:16:18.046Z,100283.84
2022-08-16T06:18:55.185Z,100290.19
2022-08-16T06:21:24.063Z,100282.28
2022-08-16T06:24:01.183Z,100291.53
2022-08-16T06:26:37.048Z,100284.28
2022-08-16T06:29:08.280Z,100288.91
2022-08-16T06:31:49.230Z,100285.25
2022-08-16T06:34:54.235Z,100293.72
2022-08-16T06:37:37.098Z,100292.81
2022-08-16T06:40:18.509Z,100299.03
2022-08-16T06:43:02.017Z,100298.63
2022-08-16T06:45:45.271Z,100299.31
2022-08-16T06:48:33.092Z,100299.47
2022-08-16T06:51:10.333Z,100308.84
2022-08-16T06:53:46.145Z,100307.09
2022-08-16T06:56:23.063Z,100312.06
2022-08-16T06:59:17.820Z,100310.13
2022-08-16T07:01:55.155Z,100312.25
2022-08-16T07:04:41.599Z,100314.94
2022-08-16T07:07:22.537Z,100313.78
2022-08-16T07:09:59.164Z,100316.16
2022-08-16T07:12:47.653Z,100311.03
2022-08-16T07:15:32.107Z,100315.47
2022-08-16T07:18:07.599Z,100319.97
2022-08-16T07:20:48.420Z,100325.88
2022-08-16T07:23:37.359Z,100321.69
2022-08-16T07:26:25.214Z,100323.91
2022-08-16T07:29:02.770Z,100324.44
2022-08-16T07:31:38.455Z,100322.03
2022-08-16T07:34:19.162Z,100331.41
2022-08-16T07:36:58.020Z,100340.16
2022-08-16T07:39:43.268Z,100334.72
2022-08-16T07:42:28.262Z,100341.53
2022-08-16T07:45:10.289Z,100349.00
2022-08-16T07:47:45.456Z,100343.91
2022-08-16T07:50:58.402Z,100350.28
2022-08-16T07:53:21.730Z,100347.88
2022-08-16T07:55:53.993Z,100351.44
2022-08-16T07:58:36.203Z,100361.13
2022-08-16T08:01:30.378Z,100357.53
2022-08-16T08:04:04.250Z,100352.06
2022-08-16T08:06:44.896Z,100357.00
2022-08-16T08:09:21.154Z,100361.22
2022-08-16T08:11:59.937Z,100356.28
2022-08-16T08:14:46.162Z,100359.47
2022-08-16T08:17:42.148Z,100370.66
2022-08-16T08:20:29.462Z,100371.59
2022-08-16T08:23:12.954Z,100369.97
2022-08-16T08:25:55.837Z,100377.53
2022-08-16T08:28:32.177Z,100363.38
2022-08-16T08:31:11.307Z,100363.91
2022-08-16T08:33:51.569Z,100365.00
2022-08-16T08:36:37.074Z,100361.97
2022-08-16T08:39:54.861Z,100362.28
2022-08-16T08:42:34.509Z,100357.66
2022-08-16T08:45:20.192Z,100353.94
2022-08-16T08:48:10.763Z,100363.31
2022-08-16T08:51:10.241Z,100353.69
2022-08-16T08:53:58.529Z,100352.47
2022-08-16T08:56:37.474Z,100354.00
2022-08-16T08:59:19.703Z,100362.59
2022-08-16T09:02:03.228Z,100371.28
2022-08-16T09:04:52.094Z,100368.72
2022-08-16T09:07:28.234Z,100365.81
2022-08-16T09:10:20.465Z,100367.03
2022-08-16T09:13:04.728Z,100366.97
2022-08-16T09:16:00.148Z,100366.53
2022-08-16T09:18:35.296Z,100371.25
2022-08-16T09:21:09.541Z,100360.31
2022-08-16T09:23:47.372Z,100361.22
2022-08-16T09:26:45.561Z,100365.78
2022-08-16T09:29:45.000Z,100374.72
2022-08-16T09:32:28.840Z,100373.84
2022-08-16T09:35:07.289Z,100365.44
2022-08-16T09:37:46.377Z,100367.34
2022-08-16T09:40:42.381Z,100367.75
2022-08-16T09:43:58.647Z,100369.09
2022-08-16T09:46:44.464Z,100372.28
2022-08-16T09:49:04.955Z,100367.69
2022-08-16T09:51:40.831Z,100370.31
2022-08-16T09:54:17.178Z,100376.81
2022-08-16T09:56:56.243Z,100375.50
2022-08-16T09:59:30.470Z,100373.91
2022-08-16T10:01:59.784Z,100377.41
2022-08-16T10:04:44.305Z,100382.00
2022-08-16T10:07:44.436Z,100379.75
2022-08-16T10:10:18.856Z,100378.53
2022-08-16T10:13:16.257Z,100384.69
2022-08-16T10:15:55.754Z,100384.84
2022-08-16T10:18:56.401Z,100380.28
2022-08-16T10:21:29.096Z,100383.47
2022-08-16T10:24:05.702Z,100382.09
2022-08-16T10:27:19.781Z,100373.63
2022-08-16T10:30:01.033Z,100370.78
2022-08-16T10:32:32.461Z,100377.59
2022-08-16T10:35:06.390Z,100373.56
2022-08-16T10:37:42.784Z,100379.81
2022-08-16T10:40:28.733Z,100369.41
2022-08-16T10:43:04.599Z,100376.81
2022-08-16T10:45:40.675Z,100364.47
2022-08-16T10:48:27.083Z,100372.81
2022-08-16T10:51:05.432Z,100366.22
2022-08-16T10:53:39.549Z,100373.19
2022-08-16T10:56:56.199Z,100370.00
2022-08-16T10:59:44.015Z,100376.56
2022-08-16T11:02:59.116Z,100378.66
2022-08-16T11:08:45.005Z,100374.69
2022-08-16T11:11:22.525Z,100371.16
2022-08-16T11:14:00.058Z,100378.44
2022-08-16T11:17:10.477Z,100380.00
2022-08-16T11:22:48.543Z,100373.66
2022-08-16T11:31:28.177Z,100382.25
2022-08-16T11:34:03.518Z,100383.44
2022-08-16T11:36:38.755Z,100381.78
2022-08-16T11:39:25.101Z,100392.31
2022-08-16T11:42:01.171Z,100385.19
2022-08-16T11:44:52.468Z,100376.06
2022-08-16T11:47:29.203Z,100378.97
2022-08-16T11:50:13.920Z,100376.59
2022-08-16T11:52:47.313Z,100377.81
2022-08-16T11:55:23.603Z,100373.06
2022-08-16T11:57:57.738Z,100368.25
2022-08-16T12:00:51.007Z,100367.50
2022-08-16T12:03:35.103Z,100372.34
2022-08-16T12:06:25.008Z,100372.81
2022-08-16T12:09:06.263Z,100373.59
2022-08-16T12:11:39.562Z,100355.78
2022-08-16T12:14:19.777Z,100362.50
2022-08-16T12:16:57.555Z,100368.78
2022-08-16T12:19:35.952Z,100362.91
2022-08-16T12:22:18.583Z,100354.59
2022-08-16T12:24:58.509Z,100356.00
2022-08-16T12:27:29.898Z,100357.81
2022-08-16T12:30:26.345Z,100351.06
2022-08-16T12:33:06.674Z,100341.25
2022-08-16T12:35:39.858Z,100345.56
2022-08-16T12:38:40.925Z,100348.88
2022-08-16T12:41:08.121Z,100351.59
2022-08-16T12:43:45.345Z,100353.59
2022-08-16T12:46:18.590Z,100345.06
2022-08-16T12:49:06.421Z,100342.22
2022-08-16T12:51:59.662Z,100342.72
2022-08-16T12:54:31.566Z,100340.72
2022-08-16T12:57:06.906Z,100326.81
2022-08-16T12:59:56.267Z,100320.34
2022-08-16T13:02:33.305Z,100330.94
2022-08-16T13:05:07.119Z,100325.25
2022-08-16T13:07:42.612Z,100329.84
2022-08-16T13:10:38.070Z,100317.78
2022-08-16T13:13:16.495Z,100321.72
2022-08-16T13:15:58.281Z,100323.78
2022-08-16T13:18:36.813Z,100319.47
2022-08-16T13:21:23.810Z,100318.97
2022-08-16T13:24:05.792Z,100315.56
2022-08-16T13:26:41.033Z,100320.16
2022-08-16T13:29:16.907Z,100314.22
2022-08-16T13:31:56.514Z,100318.94
2022-08-16T13:34:27.318Z,100313.56
2022-08-16T13:37:04.308Z,100310.69
2022-08-16T13:39:38.012Z,100314.59
2022-08-16T13:42:13.758Z,100304.56
2022-08-16T13:44:58.058Z,100312.34
2022-08-16T13:47:34.725Z,100310.34
2022-08-16T13:50:05.746Z,100305.81
2022-08-16T13:52:46.014Z,100303.44
2022-08-16T13:55:18.349Z,100293.34
2022-08-16T13:58:36.245Z,100296.47
2022-08-16T14:00:56.253Z,100301.09
2022-08-16T14:03:31.382Z,100295.59
2022-08-16T14:06:06.301Z,100300.66
2022-08-16T14:08:42.181Z,100296.50
2022-08-16T14:11:19.584Z,100296.72
2022-08-16T14:13:54.039Z,100284.72
2022-08-16T14:16:35.514Z,100284.22
2022-08-16T14:19:04.770Z,100288.94
2022-08-16T14:21:45.641Z,100288.84
2022-08-16T14:24:30.698Z,100286.50
2022-08-16T14:27:09.837Z,100290.53
2022-08-16T14:29:53.449Z,100284.38
2022-08-16T14:32:34.688Z,100275.47
2022-08-16T14:35:17.043Z,100272.78
2022-08-16T14:37:57.109Z,100281.59
2022-08-16T14:40:43.463Z,100283.16
2022-08-16T14:43:18.681Z,100282.66
2022-08-16T14:46:02.831Z,100288.38
2022-08-16T14:48:47.582Z,100278.59
2022-08-16T14:51:27.418Z,100275.28
2022-08-16T14:54:11.179Z,100279.91
2022-08-16T14:56:54.979Z,100276.06
2022-08-16T14:59:31.365Z,100274.63
2022-08-16T15:02:33.858Z,100271.09
2022-08-16T15:05:11.037Z,100265.88
2022-08-16T15:07:46.085Z,100265.59
2022-08-16T15:10:39.035Z,100271.00
2022-08-16T15:13:14.129Z,100268.78
2022-08-16T15:16:00.306Z,100280.03
2022-08-16T15:18:39.212Z,100268.41
2022-08-16T15:21:13.402Z,100257.34
2022-08-16T15:23:47.621Z,100269.84
2022-08-16T15:26:34.741Z,100267.69
2022-08-16T15:29:11.336Z,100265.13
2022-08-16T15:32:00.959Z,100259.59
2022-08-16T15:34:44.954Z,100259.47
2022-08-16T15:37:17.139Z,100267.03
2022-08-16T15:39:49.242Z,100260.81
2022-08-16T15:42:29.378Z,100265.78
2022-08-16T15:45:11.432Z,100267.31
2022-08-16T15:47:56.665Z,100261.22
2022-08-16T15:50:39.512Z,100261.03
2022-08-16T15:53:22.682Z,100266.13
2022-08-16T15:56:03.206Z,100270.88
2022-08-16T15:58:55.847Z,100260.16
2022-08-16T16:01:32.477Z,100248.66
2022-08-16T16:04:10.221Z,100259.88
2022-08-16T16:06:48.996Z,100255.56
2022-08-16T16:09:37.015Z,100254.47
2022-08-16T16:12:41.602Z,100255.06
2022-08-16T16:15:01.869Z,100258.94
2022-08-16T16:17:33.107Z,100255.78
2022-08-16T16:20:14.722Z,100252.59
2022-08-16T16:22:46.343Z,100256.22
2022-08-16T16:25:20.802Z,100257.69
2022-08-16T16:28:00.661Z,100256.31
2022-08-16T16:30:44.389Z,100263.59
2022-08-16T16:33:24.763Z,100259.72
2022-08-16T16:35:57.256Z,100266.44
2022-08-16T16:38:39.276Z,100255.13
2022-08-16T16:41:28.230Z,100250.88
2022-08-16T16:43:57.568Z,100258.75
2022-08-16T16:46:40.586Z,100249.50
2022-08-16T16:49:19.479Z,100248.53
2022-08-16T16:52:07.276Z,100250.50
2022-08-16T16:54:50.789Z,100252.44
2022-08-16T16:57:50.881Z,100256.78
2022-08-16T17:00:38.355Z,100251.06
2022-08-16T17:03:17.441Z,100259.97
2022-08-16T17:05:57.084Z,100259.06
2022-08-16T17:08:33.126Z,100253.75
2022-08-16T17:11:08.303Z,100258.19
2022-08-16T17:13:43.305Z,100259.34
2022-08-16T17:16:18.774Z,100256.50
2022-08-16T17:19:15.057Z,100258.03
2022-08-16T17:22:14.279Z,100250.00
2022-08-16T17:24:52.263Z,100259.00
2022-08-16T17:27:32.530Z,100263.19
2022-08-16T17:30:19.613Z,100262.75
2022-08-16T17:33:03.752Z,100267.19
2022-08-16T17:35:39.063Z,100260.69
2022-08-16T17:38:39.062Z,100261.50
2022-08-16T17:41:18.575Z,100262.28
2022-08-16T17:43:55.358Z,100262.28
2022-08-16T17:46:51.210Z,100258.28
2022-08-16T17:49:20.805Z,100266.72
2022-08-16T17:52:00.179Z,100273.59
2022-08-16T17:54:38.489Z,100266.63
2022-08-16T17:57:13.606Z,100276.44
2022-08-16T17:59:53.308Z,100274.06
2022-08-16T18:02:43.587Z,100276.81
2022-08-16T18:05:18.420Z,100274.38
2022-08-16T18:07:51.661Z,100277.59
2022-08-16T18:10:32.790Z,100273.50
2022-08-16T18:13:16.213Z,100280.88
2022-08-16T18:16:01.243Z,100287.41
2022-08-16T18:18:37.509Z,100279.19
2022-08-16T18:21:27.456Z,100283.66
2022-08-16T18:24:06.013Z,100286.53
2022-08-16T18:26:37.045Z,100287.31
2022-08-16T18:29:13.663Z,100285.16
2022-08-16T18:31:50.971Z,100295.78
2022-08-16T18:34:29.507Z,100290.41
2022-08-16T18:37:04.612Z,100293.63
2022-08-16T18:39:38.426Z,100295.69
2022-08-16T18:42:29.723Z,100304.59
2022-08-16T18:45:07.004Z,100304.03
2022-08-16T18:47:39.649Z,100304.41
2022-08-16T18:50:17.153Z,100310.53
2022-08-16T18:52:57.455Z,100308.84
2022-08-16T18:55:33.558Z,100308.84
2022-08-16T18:58:17.372Z,100311.69
2022-08-16T19:00:56.470Z,100312.88
2022-08-16T19:03:35.408Z,100310.81
2022-08-16T19:06:13.667Z,100313.56
2022-08-16T19:08:50.241Z,100307.53
2022-08-16T19:11:30.225Z,100313.28
2022-08-16T19:14:08.731Z,100313.66
2022-08-16T19:16:47.573Z,100322.56
2022-08-16T19:19:27.368Z,100318.94
2022-08-16T19:22:03.220Z,100316.09
2022-08-16T19:24:39.612Z,100322.91
2022-08-16T19:27:19.543Z,100323.38
2022-08-16T19:29:54.514Z,100341.19
2022-08-16T19:32:29.178Z,100346.88
2022-08-16T19:35:04.939Z,100348.94
2022-08-16T19:37:46.086Z,100355.00
2022-08-16T19:40:37.770Z,100348.03
2022-08-16T19:43:20.055Z,100360.34
2022-08-16T19:45:59.036Z,100362.28
2022-08-16T19:48:35.257Z,100368.00
2022-08-16T19:51:09.178Z,100366.41
2022-08-16T19:53:42.974Z,100368.44
2022-08-16T19:56:15.964Z,100366.03
2022-08-16T19:59:16.416Z,100361.50
2022-08-16T20:01:42.272Z,100376.91
2022-08-16T20:04:25.964Z,100375.75
2022-08-16T20:07:04.048Z,100376.09
2022-08-16T20:09:38.035Z,100384.63
2022-08-16T20:12:34.369Z,100391.16
2022-08-16T20:15:15.943Z,100388.75
2022-08-16T20:17:52.533Z,100393.19
2022-08-16T20:20:27.374Z,100394.81
2022-08-16T20:23:04.945Z,100398.00
2022-08-16T20:25:42.740Z,100404.16
2022-08-16T20:28:53.538Z,100400.06
2022-08-16T20:31:23.793Z,100403.38
2022-08-16T20:33:57.827Z,100409.50
2022-08-16T20:36:34.837Z,100408.25
2022-08-16T20:39:16.741Z,100410.28
2022-08-16T20:41:50.894Z,100411.13
2022-08-16T20:44:29.606Z,100414.69
2022-08-16T20:47:06.179Z,100422.44
2022-08-16T20:49:48.207Z,100417.53
2022-08-16T20:52:23.666Z,100426.44
2022-08-16T20:54:55.751Z,100421.59
2022-08-16T20:57:34.759Z,100428.06
2022-08-16T21:00:11.433Z,100429.75
2022-08-16T21:02:49.784Z,100435.00
2022-08-16T21:05:31.704Z,100441.53
2022-08-16T21:08:52.681Z,100441.88
2022-08-16T21:11:00.894Z,100436.63
2022-08-16T21:13:42.497Z,100443.91
2022-08-16T21:16:16.993Z,100441.06
2022-08-16T21:18:51.518Z,100439.81
2022-08-16T21:21:32.127Z,100439.81
2022-08-16T21:24:10.559Z,100440.66
2022-08-16T21:26:41.073Z,100448.03
2022-08-16T21:29:42.983Z,100449.19
2022-08-16T21:32:35.417Z,100456.56
2022-08-16T21:35:18.716Z,100455.78
2022-08-16T21:38:29.252Z,100448.03
2022-08-16T21:40:52.091Z,100454.44
2022-08-16T21:43:32.702Z,100458.09
2022-08-16T21:46:07.258Z,100459.72
2022-08-16T21:48:46.181Z,100461.41
2022-08-16T21:51:22.298Z,100468.59
2022-08-16T21:53:56.997Z,100471.03
2022-08-16T21:56:30.224Z,100467.44
2022-08-16T21:59:07.116Z,100468.25
2022-08-16T22:01:46.827Z,100482.06
2022-08-16T22:04:37.174Z,100486.06
2022-08-16T22:07:19.063Z,100481.59
2022-08-16T22:09:58.129Z,100486.50
2022-08-16T22:12:59.584Z,100486.88
2022-08-16T22:15:36.015Z,100485.28
2022-08-16T22:18:12.659Z,100486.50
2022-08-16T22:20:52.170Z,100492.22
2022-08-16T22:23:28.683Z,100490.97
2022-08-16T22:25:59.278Z,100491.41
2022-08-16T22:28:30.894Z,100497.03
2022-08-16T22:31:07.524Z,100488.94
2022-08-16T22:33:40.598Z,100497.03
2022-08-16T22:36:19.985Z,100503.97
2022-08-16T22:38:57.405Z,100505.25
2022-08-16T22:41:33.440Z,100508.00
2022-08-16T22:44:08.218Z,100508.44
2022-08-16T22:46:45.264Z,100510.06
2022-08-16T22:49:19.008Z,100501.50
2022-08-16T22:51:54.764Z,100503.53
2022-08-16T22:54:47.755Z,100509.59
2022-08-16T22:57:21.789Z,100505.94
2022-08-16T23:00:00.699Z,100511.66
2022-08-16T23:03:04.956Z,100511.28
2022-08-16T23:05:42.775Z,100503.09
2022-08-16T23:08:32.221Z,100497.41
2022-08-16T23:11:23.387Z,100499.44
2022-08-16T23:13:59.450Z,100496.13
2022-08-16T23:16:36.093Z,100497.75
2022-08-16T23:19:16.933Z,100498.19
2022-08-16T23:21:51.872Z,100489.63
2022-08-16T23:24:24.704Z,100480.56
2022-08-16T23:26:55.151Z,100472.00
2022-08-16T23:29:34.148Z,100470.84
2022-08-16T23:32:14.151Z,100479.31
2022-08-16T23:34:51.283Z,100472.44
2022-08-16T23:37:37.045Z,100467.63
2022-08-16T23:40:12.417Z,100455.44
2022-08-16T23:43:23.131Z,100460.25
2022-08-16T23:46:02.387Z,100464.25
2022-08-16T23:49:56.031Z,100466.31
2022-08-16T23:51:43.762Z,100473.25
2022-08-16T23:54:17.225Z,100477.34
2022-08-16T23:56:59.772Z,100481.38
2022-08-16T23:59:36.765Z,100476.09
